Terminal Aerodrome Forecast
Issued by NWS Cleveland, OH

Home | Current Version | Previous Version | Text Only | Print | Product List | Glossary On
Versions: 1 2 3 4 5 6 7 8 9 10 11 12 13 14 15 16 17 18 19 20 21 22 23 24 25 26
000
FTUS41 KCLE 231300 AAA
TAFTOL
TAF AMD
KTOL 231306Z 2313/2412 06006KT P6SM SCT015 BKN050
     FM231500 06006KT P6SM SCT025
     FM231800 06006KT P6SM BKN040
     FM240000 06004KT P6SM SCT040
     FM240500 06003KT 5SM BR SCT005
     FM240900 07003KT 1SM BR BKN005=

USA.gov is the U.S. government's official web portal to all federal, state and local government web resources and services.